ENMS/MJF METAR and TAF weather

Enter ICAO airport designator
Station Type Date Time Source
ENMS METAR 2022/05/23 15:20 UTC NOAA

ENMS 231520Z 17012KT CAVOK 18/02 Q1003 RMK WIND 412FT 11007KT


Station Type Date Time Source
ENMS Decoded METAR 2022/05/23 15:20 UTC NOAA

Mosjoen Kjaerstad, Norway (ENMS) 65-48N 013-08E
May 23, 2022 - 11:20 AM EDT / 2022.05.23 1520 UTC
Wind: from the S (170 degrees) at 14 MPH (12 KT):0
Visibility: greater than 7 mile(s):0
Temperature: 64 F (18 C)
Dew Point: 35 F (2 C)
Relative Humidity: 34%
Pressure (altimeter): 29.62 in. Hg (1003 hPa)
ob: ENMS 231520Z 17012KT CAVOK 18/02 Q1003 RMK WIND 412FT 11007KT
cycle: 15

Station Type Date Time Source
ENMS TAF UTC NOAA

Error!

Example: see airport list